Flight Track Log - Related Links

Times and Time Zones

All times are in EDT time to prevent confusion due to time zone crossing. See the AAL1326 flight status page for this flight to view local times or setup timezone preferences in your user account.

Time Position Orientation Groundspeed Altitude Reporting Facility
EDT Latitude Longitude Course Direction KTS MPH feet Rate Location/Type
Thu 07:07:32 PM 41.9440 -87.9110 223° Southwest 178 205 1,500  Level FlightAware ADS-B
Thu 07:07:57 PM 41.9250 -87.9260 210° Southwest 183 211 2,500 2,200 Climbing FlightAware ADS-B
Thu 07:08:02 PM 41.9230 -87.9260 180° South 187 215 2,600 1,400 Climbing FlightAware ADS-B
Thu 07:08:27 PM 41.9010 -87.9120 155° Southeast 219 252 3,200 1,350 Climbing FlightAware ADS-B
Thu 07:08:42 PM 41.8940 -87.8950 119° Southeast 241 277 3,500 1,440 Climbing FlightAware ADS-B
Thu 07:08:52 PM 41.8910 -87.8790 104° East 253 291 3,800 1,500 Climbing FlightAware ADS-B
Thu 07:09:22 PM 41.9020 -87.8300 73° East 284 327 4,500 1,309 Climbing FlightAware ADS-B
Thu 07:09:47 PM 41.9180 -87.7890 62° Northeast 289 333 5,000 873 Climbing FlightAware ADS-B
Thu 07:10:17 PM 41.9360 -87.7420 63° Northeast 288 331 5,300 1,600 Climbing FlightAware ADS-B
Thu 07:10:47 PM 41.9490 -87.6920 71° East 282 325 6,600 2,836 Climbing FlightAware ADS-B
Thu 07:11:12 PM 41.9540 -87.6500 81° East 279 321 7,900 2,945 Climbing FlightAware ADS-B
Thu 07:11:42 PM 41.9530 -87.5990 91° East 282 325 9,300 2,753 Climbing FlightAware ADS-B
Thu 07:12:37 PM 41.9540 -87.4970 89° East 297 342 11,800 2,580 Climbing FlightAware ADS-B
Thu 07:13:22 PM 41.9580 -87.4160 86° East 309 356 13,600 2,471 Climbing FlightAware ADS-B
Thu 07:14:02 PM 41.9630 -87.3360 85° East 321 369 15,300 2,475 Climbing FlightAware ADS-B
Thu 07:14:42 PM 41.9670 -87.2560 86° East 332 382 16,900 1,835 Climbing FlightAware ADS-B
Thu 07:15:27 PM 41.9730 -87.1580 85° East 370 426 17,900 1,341 Climbing FlightAware ADS-B
Thu 07:16:07 PM 41.9750 -87.0610 88° East 396 456 18,800 1,482 Climbing FlightAware ADS-B
Thu 07:16:52 PM 41.9760 -86.9590 89° East 411 473 20,000 2,259 Climbing FlightAware ADS-B
Thu 07:17:32 PM 41.9730 -86.8490 92° East 405 466 22,000 2,400 Climbing FlightAware ADS-B
Thu 07:18:12 PM 41.9710 -86.7570 92° East 412 474 23,200 1,624 Climbing FlightAware ADS-B
Thu 07:18:57 PM 41.9580 -86.6340 98° East 426 490 24,300 1,412 Climbing FlightAware ADS-B
Thu 07:19:37 PM 41.9420 -86.5280 101° East 441 507 25,200 1,482 Climbing FlightAware ADS-B
Thu 07:20:22 PM 41.9240 -86.4090 101° East 446 513 26,400 1,624 Climbing FlightAware ADS-B
Thu 07:21:02 PM 41.9070 -86.2970 101° East 455 524 27,500 1,575 Climbing FlightAware ADS-B
Thu 07:21:42 PM 41.8900 -86.1840 101° East 460 529 28,500 1,059 Climbing FlightAware ADS-B
Thu 07:22:27 PM 41.8710 -86.0580 101° East 457 526 29,000 353 Climbing FlightAware ADS-B
Thu 07:23:07 PM 41.8540 -85.9480 102° East 453 521 29,000  Level FlightAware ADS-B
Thu 07:23:47 PM 41.8370 -85.8440 102° East 452 520 29,000 212 Level FlightAware ADS-B
Thu 07:24:32 PM 41.8180 -85.7170 101° East 478 550 29,300 635 Climbing FlightAware ADS-B
Thu 07:25:12 PM 41.7990 -85.5980 102° East 489 563 29,900 1,129 Climbing FlightAware ADS-B
Thu 07:25:57 PM 41.7760 -85.4570 102° East 495 570 30,900 1,341 Climbing FlightAware ADS-B
Thu 07:26:37 PM 41.7570 -85.3380 102° East 496 571 31,800 1,275 Climbing FlightAware ADS-B
Thu 07:27:17 PM 41.7390 -85.2250 102° East 495 570 32,600 1,341 Climbing FlightAware ADS-B
Thu 07:28:02 PM 41.7170 -85.0900 102° East 490 564 33,700 1,482 Climbing FlightAware ADS-B
Thu 07:28:42 PM 41.6970 -84.9640 102° East 486 559 34,700 1,200 Climbing FlightAware ADS-B
Thu 07:29:22 PM 41.6790 -84.8560 103° East 486 559 35,300 943 Climbing FlightAware ADS-B
Thu 07:29:52 PM 41.6660 -84.7640 101° East 486 559 35,800 960 Climbing FlightAware ADS-B
Thu 07:30:37 PM 41.6600 -84.6270 93° East 486 559 36,500 847 Climbing FlightAware ADS-B
Thu 07:31:17 PM 41.6260 -84.5160 112° Southeast 484 557 37,000 353 Climbing FlightAware ADS-B
Thu 07:32:02 PM 41.5580 -84.4240 135° Southeast 480 552 37,000  Level FlightAware ADS-B
Thu 07:32:42 PM 41.4930 -84.3370 135° Southeast 480 552 37,000  Level FlightAware ADS-B
Thu 07:33:22 PM 41.4320 -84.2550 135° Southeast 478 550 37,000  Level FlightAware ADS-B
Thu 07:34:07 PM 41.3620 -84.1610 135° Southeast 478 550 37,000  Level FlightAware ADS-B
Thu 07:34:47 PM 41.2990 -84.0770 135° Southeast 478 550 37,000  Level FlightAware ADS-B
Thu 07:35:27 PM 41.2360 -83.9930 135° Southeast 479 551 37,000  Level FlightAware ADS-B
Thu 07:36:12 PM 41.1670 -83.9020 135° Southeast 480 552 37,000  Level FlightAware ADS-B
Thu 07:36:52 PM 41.1020 -83.8150 135° Southeast 482 555 37,000  Level FlightAware ADS-B
Thu 07:37:37 PM 41.0310 -83.7230 136° Southeast 483 556 37,000  Level FlightAware ADS-B
Thu 07:38:17 PM 40.9690 -83.6410 135° Southeast 483 556 37,000  Level FlightAware ADS-B
Thu 07:39:02 PM 40.8990 -83.5490 135° Southeast 483 556 37,000  Level FlightAware ADS-B
Thu 07:39:42 PM 40.8340 -83.4640 135° Southeast 482 555 37,000  Level FlightAware ADS-B
Thu 07:40:27 PM 40.7610 -83.3700 136° Southeast 481 554 37,000  Level FlightAware ADS-B
Thu 07:41:07 PM 40.6950 -83.2890 137° Southeast 476 548 37,000  Level FlightAware ADS-B
Thu 07:41:47 PM 40.6190 -83.2470 157° South 463 533 37,000  Level FlightAware ADS-B
Thu 07:42:32 PM 40.5230 -83.2240 170° South 462 532 37,000  Level FlightAware ADS-B
Thu 07:43:12 PM 40.4400 -83.2030 169° South 461 531 37,000  Level FlightAware ADS-B
Thu 07:43:52 PM 40.3560 -83.1820 169° South 463 533 37,000  Level FlightAware ADS-B
Thu 07:44:37 PM 40.2630 -83.1590 169° South 464 534 37,000  Level FlightAware ADS-B
Thu 07:45:17 PM 40.1810 -83.1390 169° South 465 535 37,000  Level FlightAware ADS-B
Thu 07:46:02 PM 40.0820 -83.1140 169° South 466 536 37,000  Level FlightAware ADS-B
Thu 07:46:42 PM 40.0010 -83.0940 169° South 466 536 37,000  Level FlightAware ADS-B
Thu 07:47:22 PM 39.9140 -83.0720 169° South 466 536 37,000  Level FlightAware ADS-B
Thu 07:48:07 PM 39.8170 -83.0480 169° South 466 536 37,000  Level FlightAware ADS-B
Thu 07:49:02 PM 39.7110 -83.0210 169° South 466 536 37,000  Level FlightAware ADS-B
Thu 07:49:42 PM 39.6390 -83.0030 169° South 466 536 37,000  Level FlightAware ADS-B
Thu 07:50:22 PM 39.5670 -82.9850 169° South 466 536 37,000  Level FlightAware ADS-B
Thu 07:51:22 PM 39.4110 -82.9470 169° South 467 537 37,000  Level FlightAware ADS-B
Thu 07:52:02 PM 39.3390 -82.9280 168° South 467 537 37,000  Level FlightAware ADS-B
Thu 07:52:42 PM 39.2670 -82.9100 169° South 467 537 37,000  Level FlightAware ADS-B
Thu 07:53:27 PM 39.1410 -82.8800 170° South 467 537 37,000  Level FlightAware ADS-B
Thu 07:54:12 PM 39.0440 -82.8570 170° South 467 537 37,000  Level FlightAware ADS-B
Thu 07:54:52 PM 38.9560 -82.8350 169° South 466 536 37,000  Level FlightAware ADS-B
Thu 07:55:37 PM 38.8680 -82.8140 169° South 467 537 37,000  Level FlightAware ADS-B
Thu 07:56:17 PM 38.7870 -82.7930 169° South 467 537 37,000  Level FlightAware ADS-B
Thu 07:56:57 PM 38.7150 -82.7750 169° South 467 537 37,000  Level FlightAware ADS-B
Thu 07:57:37 PM 38.6430 -82.7580 170° South 467 537 37,000  Level FlightAware ADS-B
Thu 07:58:22 PM 38.5130 -82.7620 181° South 463 533 37,000  Level FlightAware ADS-B
Thu 07:59:02 PM 38.4240 -82.7600 179° South 464 534 37,000  Level FlightAware ADS-B
Thu 07:59:47 PM 38.3270 -82.7570 179° South 463 533 37,000  Level FlightAware ADS-B
Thu 08:00:32 PM 38.2320 -82.7540 179° South 463 533 37,000  Level FlightAware ADS-B
Thu 08:01:12 PM 38.1490 -82.7520 179° South 463 533 37,000  Level FlightAware ADS-B
Thu 08:01:25 PM 38.1144 -82.7509 179° South 463 533 37,000  Level FlightAware ADS-B
Thu 08:02:02 PM 38.0353 -82.7487 179° South 462 532 37,000  Level FlightAware ADS-B
Thu 08:02:37 PM 37.9650 -82.7470 179° South 462 532 37,000  Level FlightAware ADS-B
Thu 08:02:52 PM 37.9278 -82.7456 178° South 462 532 37,000  Level FlightAware ADS-B
Thu 08:03:25 PM 37.8580 -82.7436 179° South 461 531 37,000  Level FlightAware ADS-B
Thu 08:03:57 PM 37.7897 -82.7415 179° South 461 531 37,000  Level FlightAware ADS-B
Thu 08:04:44 PM 37.6891 -82.7389 179° South 461 531 37,000  Level FlightAware ADS-B
Thu 08:05:29 PM 37.5928 -82.7363 179° South 461 531 37,000  Level FlightAware ADS-B
Thu 08:06:06 PM 37.5159 -82.7341 179° South 459 528 37,000  Level FlightAware ADS-B
Thu 08:06:38 PM 37.4479 -82.7321 179° South 458 527 37,000  Level FlightAware ADS-B
Thu 08:07:24 PM 37.3504 -82.7294 179° South 458 527 37,000  Level FlightAware ADS-B
Thu 08:07:55 PM 37.2842 -82.7275 179° South 455 524 37,000 -194 Level FlightAware ADS-B
Thu 08:08:26 PM 37.2196 -82.7259 179° South 456 525 36,800 -762 Descending FlightAware ADS-B
Thu 08:08:58 PM 37.1518 -82.7239 179° South 460 529 36,200 -1,065 Descending FlightAware ADS-B
Thu 08:09:28 PM 37.0874 -82.7218 179° South 464 534 35,700 -1,082 Descending FlightAware ADS-B
Thu 08:09:59 PM 37.0209 -82.7199 179° South 464 534 35,100 -677 Descending FlightAware ADS-B
Thu 08:10:30 PM 36.9542 -82.7181 179° South 461 531 35,000 -92 Descending FlightAware ADS-B
Thu 08:11:04 PM 36.8809 -82.7161 179° South 460 529 35,000  Level FlightAware ADS-B
Thu 08:11:35 PM 36.8163 -82.7145 179° South 459 528 35,000  Level FlightAware ADS-B
Thu 08:12:04 PM 36.7535 -82.7126 179° South 459 528 35,000  Level FlightAware ADS-B
Thu 08:12:59 PM 36.6395 -82.6891 171° South 459 528 35,000  Level FlightAware ADS-B
Thu 08:13:31 PM 36.5719 -82.6744 170° South 459 528 35,000  Level FlightAware ADS-B
Thu 08:14:02 PM 36.5077 -82.6605 170° South 458 527 35,000  Level FlightAware ADS-B
Thu 08:14:33 PM 36.4425 -82.6462 170° South 456 525 35,000  Level FlightAware ADS-B
Thu 08:14:59 PM 36.3892 -82.6346 170° South 454 522 35,000  Level FlightAware ADS-B
Thu 08:15:11 PM 36.3651 -82.6316 174° South 453 521 35,000  Level FlightAware ADS-B
Thu 08:15:41 PM 36.3019 -82.6306 179° South 454 522 35,000  Level FlightAware ADS-B
Thu 08:16:11 PM 36.2374 -82.6299 179° South 456 525 35,000  Level FlightAware ADS-B
Thu 08:16:49 PM 36.1573 -82.6288 179° South 456 525 35,000  Level FlightAware ADS-B
Thu 08:17:22 PM 36.0889 -82.6279 179° South 456 525 35,000  Level FlightAware ADS-B
Thu 08:17:52 PM 36.0240 -82.6271 179° South 456 525 35,000  Level FlightAware ADS-B
Thu 08:18:24 PM 35.9571 -82.6262 179° South 456 525 35,000  Level FlightAware ADS-B
Thu 08:18:55 PM 35.8914 -82.6254 179° South 456 525 35,000  Level FlightAware ADS-B
Thu 08:19:26 PM 35.8274 -82.6246 179° South 455 524 35,000  Level FlightAware ADS-B
Thu 08:19:57 PM 35.7603 -82.6235 179° South 457 526 35,000  Level FlightAware ADS-B
Thu 08:20:28 PM 35.6957 -82.6223 179° South 457 526 35,000  Level FlightAware ADS-B
Thu 08:20:58 PM 35.6313 -82.6214 179° South 459 528 35,000  Level FlightAware ADS-B
Thu 08:21:30 PM 35.5643 -82.6204 179° South 460 529 35,000  Level FlightAware ADS-B
Thu 08:22:04 PM 35.4912 -82.6194 179° South 461 531 35,000  Level FlightAware ADS-B
Thu 08:22:38 PM 35.4182 -82.6184 179° South 461 531 35,000  Level FlightAware ADS-B
Thu 08:23:09 PM 35.3521 -82.6174 179° South 463 533 35,000  Level FlightAware ADS-B
Thu 08:23:41 PM 35.2838 -82.6164 179° South 463 533 35,000  Level FlightAware ADS-B
Thu 08:24:11 PM 35.2191 -82.6156 179° South 464 534 35,000  Level FlightAware ADS-B
Thu 08:24:44 PM 35.1480 -82.6147 179° South 464 534 35,000  Level FlightAware ADS-B
Thu 08:25:16 PM 35.0804 -82.6138 179° South 463 533 35,000 -375 Level FlightAware ADS-B
Thu 08:25:48 PM 35.0122 -82.6128 179° South 461 531 34,600 -774 Descending FlightAware ADS-B
Thu 08:26:18 PM 34.9471 -82.6119 179° South 464 534 34,200 -590 Descending FlightAware ADS-B
Thu 08:26:49 PM 34.8804 -82.6110 179° South 463 533 34,000 -190 Descending FlightAware ADS-B
Thu 08:27:21 PM 34.8131 -82.6100 179° South 463 533 34,000  Level FlightAware ADS-B
Thu 08:27:51 PM 34.7482 -82.6089 179° South 463 533 34,000  Level FlightAware ADS-B
Thu 08:28:29 PM 34.6672 -82.6078 179° South 462 532 34,000  Level FlightAware ADS-B
Thu 08:29:13 PM 34.5730 -82.6066 179° South 457 526 34,000  Level FlightAware ADS-B
Thu 08:29:57 PM 34.4850 -82.6060 180° South 456 525 34,000 -143 Level FlightAware ADS-B
Thu 08:30:37 PM 34.4010 -82.6040 179° South 456 525 33,800 -525 Descending FlightAware ADS-B
Thu 08:31:17 PM 34.3180 -82.6030 179° South 457 526 33,300 -565 Descending FlightAware ADS-B
Thu 08:32:02 PM 34.2220 -82.6020 180° South 452 520 33,000 -212 Descending FlightAware ADS-B
Thu 08:32:42 PM 34.1410 -82.6010 179° South 452 520 33,000  Level FlightAware ADS-B
Thu 08:33:22 PM 34.0580 -82.6000 179° South 453 521 33,000  Level FlightAware ADS-B
Thu 08:34:07 PM 33.9620 -82.5980 179° South 454 522 33,000  Level FlightAware ADS-B
Thu 08:34:42 PM 33.8900 -82.5970 179° South 455 524 33,000  Level FlightAware ADS-B
Thu 08:35:32 PM 33.7820 -82.5960 180° South 457 526 33,000  Level FlightAware ADS-B
Thu 08:36:12 PM 33.6970 -82.5950 179° South 458 527 33,000  Level FlightAware ADS-B
Thu 08:36:57 PM 33.6010 -82.5930 179° South 457 526 33,000 -71 Level FlightAware ADS-B
Thu 08:37:37 PM 33.5180 -82.5920 179° South 456 525 32,900 -375 Descending FlightAware ADS-B
Thu 08:38:17 PM 33.4340 -82.5910 179° South 453 521 32,500 -635 Descending FlightAware ADS-B
Thu 08:39:02 PM 33.3390 -82.5900 179° South 454 522 32,000 -353 Descending FlightAware ADS-B
Thu 08:39:42 PM 33.2580 -82.5890 179° South 454 522 32,000  Level FlightAware ADS-B
Thu 08:40:27 PM 33.1610 -82.5870 179° South 453 521 32,000  Level FlightAware ADS-B
Thu 08:41:07 PM 33.0780 -82.5860 179° South 452 520 32,000  Level FlightAware ADS-B
Thu 08:41:42 PM 33.0120 -82.5850 179° South 452 520 32,000  Level FlightAware ADS-B
Thu 08:42:32 PM 32.9000 -82.5840 180° South 452 520 32,000  Level FlightAware ADS-B
Thu 08:43:12 PM 32.8170 -82.5830 179° South 451 519 32,000  Level FlightAware ADS-B
Thu 08:43:57 PM 32.7250 -82.5820 179° South 450 518 32,000  Level FlightAware ADS-B
Thu 08:44:37 PM 32.6470 -82.5810 179° South 450 518 32,000  Level FlightAware ADS-B
Thu 08:45:17 PM 32.5650 -82.5790 179° South 450 518 32,000  Level FlightAware ADS-B
Thu 08:46:17 PM 32.4410 -82.5770 179° South 449 517 32,000  Level FlightAware ADS-B
Thu 08:47:07 PM 32.3320 -82.5760 180° South 450 518 32,000  Level FlightAware ADS-B
Thu 08:48:02 PM 32.2860 -82.5750 179° South 450 518 32,000  Level FlightAware ADS-B
Thu 08:48:52 PM 32.1970 -82.5740 179° South 450 518 32,000  Level FlightAware ADS-B
Thu 08:49:32 PM 32.1270 -82.5720 179° South 450 518 32,000  Level FlightAware ADS-B
Thu 08:50:12 PM 32.0560 -82.5710 179° South 450 518 32,000  Level FlightAware ADS-B
Thu 08:50:52 PM 31.9850 -82.5690 179° South 450 518 32,000  Level FlightAware ADS-B
Thu 08:51:32 PM 31.9140 -82.5680 179° South 450 518 32,000  Level FlightAware ADS-B
Thu 08:52:12 PM 31.8440 -82.5670 179° South 450 518 32,000  Level FlightAware ADS-B
Thu 08:53:02 PM 31.7550 -82.5650 179° South 450 518 32,000  Level FlightAware ADS-B
Thu 08:53:42 PM 31.6840 -82.5630 179° South 450 518 32,000  Level FlightAware ADS-B
Thu 08:54:22 PM 31.6130 -82.5620 179° South 450 518 32,000  Level FlightAware ADS-B
Thu 08:55:02 PM 31.5430 -82.5600 179° South 450 518 32,000  Level FlightAware ADS-B
Thu 08:55:42 PM 31.4720 -82.5590 179° South 450 518 32,000  Level FlightAware ADS-B
Thu 08:56:32 PM 31.3830 -82.5570 179° South 450 518 32,000  Level FlightAware ADS-B
Thu 08:57:12 PM 31.3130 -82.5560 179° South 450 518 32,000  Level FlightAware ADS-B
Thu 08:57:38 PM 31.0094 -82.5631 179° South 457 526 32,000  Level Jacksonville Center
Thu 08:58:38 PM 30.8842 -82.5608 179° South 457 526 32,000  Level Jacksonville Center
Thu 08:59:38 PM 30.7525 -82.5589 179° South 462 532 32,000  Level Jacksonville Center
Thu 09:00:38 PM 30.6253 -82.5547 178° South 462 532 32,000 -50 Level Jacksonville Center
Thu 09:01:38 PM 30.4978 -82.5550 180° South 462 532 31,900 -150 Descending Jacksonville Center
Thu 09:02:38 PM 30.3808 -82.5483 177° South 462 532 31,700 -450 Descending Jacksonville Center
Thu 09:03:38 PM 30.2536 -82.5367 175° South 467 537 31,000 -350 Descending Jacksonville Center
Thu 09:04:38 PM 30.1261 -82.5250 175° South 461 531 31,000  Level Jacksonville Center
Thu 09:10:57 PM 29.2750 -82.4600 175° South 479 551 31,000  Level FlightAware ADS-B
Thu 09:11:37 PM 29.1880 -82.4540 177° South 478 550 31,000  Level FlightAware ADS-B
Thu 09:12:22 PM 29.0910 -82.4480 177° South 468 539 31,000  Level FlightAware ADS-B
Thu 09:13:02 PM 29.0040 -82.4520 182° South 464 534 31,000  Level FlightAware ADS-B
Thu 09:13:47 PM 28.9080 -82.4580 183° South 465 535 31,000  Level FlightAware ADS-B
Thu 09:14:27 PM 28.8100 -82.4630 183° South 473 544 31,000  Level FlightAware ADS-B
Thu 09:15:12 PM 28.7120 -82.4690 183° South 474 545 31,000  Level FlightAware ADS-B
Thu 09:15:52 PM 28.6250 -82.4740 183° South 475 547 31,000  Level FlightAware ADS-B
Thu 09:16:37 PM 28.5270 -82.4790 183° South 475 547 31,000  Level FlightAware ADS-B
Thu 09:17:17 PM 28.4380 -82.4840 183° South 476 548 31,000  Level FlightAware ADS-B
Thu 09:17:57 PM 28.3510 -82.4890 183° South 476 548 31,000  Level FlightAware ADS-B
Thu 09:18:42 PM 28.2510 -82.4950 183° South 476 548 31,000  Level FlightAware ADS-B
Thu 09:19:22 PM 28.1610 -82.5000 183° South 476 548 31,000  Level FlightAware ADS-B
Thu 09:20:02 PM 28.0750 -82.5050 183° South 477 549 31,000  Level FlightAware ADS-B
Thu 09:20:37 PM 28.0010 -82.5100 183° South 480 552 31,000  Level FlightAware ADS-B
Thu 09:21:42 PM 27.8550 -82.5140 181° South 465 535 31,000  Level FlightAware ADS-B
Thu 09:22:22 PM 27.7690 -82.5300 189° South 465 535 31,000 -212 Level FlightAware ADS-B
Thu 09:23:07 PM 27.6720 -82.5490 190° South 464 534 30,700 -635 Descending FlightAware ADS-B
Thu 09:23:47 PM 27.5870 -82.5660 190° South 464 534 30,100 -975 Descending FlightAware ADS-B
Thu 09:24:27 PM 27.5030 -82.5820 190° South 461 531 29,400 -988 Descending FlightAware ADS-B
Thu 09:25:12 PM 27.4100 -82.5990 189° South 463 533 28,700 -975 Descending FlightAware ADS-B
Thu 09:25:47 PM 27.3370 -82.6110 188° South 466 536 28,100 -1,091 Descending FlightAware ADS-B
Thu 09:26:07 PM 27.2920 -82.6030 171° South 468 539 27,700 -1,067 Descending FlightAware ADS-B
Thu 09:26:32 PM 27.2460 -82.5740 151° Southeast 476 548 27,300 -943 Descending FlightAware ADS-B
Thu 09:27:17 PM 27.1820 -82.4920 131° Southeast 462 532 26,600 -988 Descending FlightAware ADS-B
Thu 09:27:57 PM 27.1250 -82.4160 130° Southeast 450 518 25,900 -988 Descending FlightAware ADS-B
Thu 09:28:42 PM 27.0720 -82.3450 130° Southeast 443 510 25,200 -988 Descending FlightAware ADS-B
Thu 09:29:22 PM 27.0170 -82.2720 130° Southeast 434 499 24,500 -960 Descending FlightAware ADS-B
Thu 09:29:57 PM 26.9750 -82.2160 130° Southeast 430 495 24,000 -353 Descending FlightAware ADS-B
Thu 09:30:47 PM 26.9070 -82.1280 131° Southeast 426 490 24,000 -133 Level FlightAware ADS-B
Thu 09:31:27 PM 26.8550 -82.0590 130° Southeast 427 491 23,800 -706 Descending FlightAware ADS-B
Thu 09:32:12 PM 26.7990 -81.9850 130° Southeast 417 480 23,000 -1,129 Descending FlightAware ADS-B
Thu 09:32:52 PM 26.7480 -81.9190 131° Southeast 405 466 22,200 -1,125 Descending FlightAware ADS-B
Thu 09:33:32 PM 26.7000 -81.8560 130° Southeast 403 464 21,500 -1,168 Descending FlightAware ADS-B
Thu 09:35:57 PM 26.5240 -81.6290 131° Southeast 387 445 18,600 -1,265 Descending FlightAware ADS-B
Thu 09:36:37 PM 26.4790 -81.5700 130° Southeast 380 437 17,600 -1,725 Descending FlightAware ADS-B
Thu 09:37:17 PM 26.4310 -81.5090 131° Southeast 376 433 16,300 -1,694 Descending FlightAware ADS-B
Thu 09:38:02 PM 26.3830 -81.4470 131° Southeast 368 423 15,200 -1,059 Descending FlightAware ADS-B
Thu 09:38:42 PM 26.3440 -81.3970 131° Southeast 367 422 14,800 -847 Descending FlightAware ADS-B
Thu 09:39:27 PM 26.2960 -81.3340 130° Southeast 365 420 14,000 -565 Descending FlightAware ADS-B
Thu 09:40:07 PM 26.2580 -81.2860 131° Southeast 365 420 14,000 -2,550 Level FlightAware ADS-B
Thu 09:40:47 PM 26.2260 -81.1940 111° Southeast 333 383 10,600 -3,150 Descending FlightAware ADS-B
Thu 09:41:27 PM 26.1980 -81.1390 120° Southeast 318 366 9,800 -1,200 Descending FlightAware ADS-B
Thu 09:41:57 PM 26.1730 -81.0930 121° Southeast 299 344 9,200 -1,091 Descending FlightAware ADS-B
Thu 09:42:22 PM 26.1570 -81.0640 122° Southeast 290 334 8,800 -982 Descending FlightAware ADS-B
Thu 09:42:52 PM 26.1420 -81.0260 114° Southeast 285 328 8,300 -1,200 Descending FlightAware ADS-B
Thu 09:43:22 PM 26.1360 -80.9800 98° East 282 325 7,600 -1,400 Descending FlightAware ADS-B
Thu 09:43:52 PM 26.1300 -80.9350 98° East 276 318 6,900 -1,200 Descending FlightAware ADS-B
Thu 09:44:07 PM 26.1280 -80.9120 96° East 275 316 6,700 -686 Descending FlightAware ADS-B
Thu 09:44:27 PM 26.1250 -80.8880 98° East 277 319 6,500 -480 Descending FlightAware ADS-B
Thu 09:44:57 PM 26.1190 -80.8440 99° East 277 319 6,300 -646 Descending FlightAware ADS-B
Thu 09:45:32 PM 26.1130 -80.7960 98° East 275 316 5,800 -462 Descending FlightAware ADS-B
Thu 09:46:02 PM 26.1080 -80.7550 98° East 274 315 5,800 77 Level FlightAware ADS-B
Thu 09:46:50 PM 26.0969 -80.6900 98° East 276 318 5,900 -88 Climbing Miami Center
Thu 09:47:10 PM 26.0958 -80.6578 92° East 277 319 5,700 -436 Descending Miami Center
Thu 09:47:45 PM 26.0864 -80.6111 103° East 280 322 5,500 -500 Descending Miami Center
Thu 09:48:10 PM 26.0853 -80.5742 92° East 277 319 5,200 -424 Descending Miami Center
Thu 09:49:10 PM 26.0789 -80.4953 95° East 267 307 4,900 -756 Descending Miami Center
Thu 09:54:47 PM 26.0770 -80.1690 95° East 146 168 200 -837 Descending FlightAware ADS-B

Login

Don't have an account? Register now (free) for customized features, flight alerts, and more!